createdAt,value
2022-09-27T00:06:40.869Z,100.00
2022-09-27T00:21:45.434Z,100.00
2022-09-27T00:36:49.443Z,100.00
2022-09-27T00:52:02.815Z,100.00
2022-09-27T01:07:06.451Z,100.00
2022-09-27T01:22:16.358Z,100.00
2022-09-27T01:37:34.419Z,100.00
2022-09-27T01:53:03.111Z,100.00
2022-09-27T02:08:18.443Z,100.00
2022-09-27T02:23:46.737Z,100.00
2022-09-27T02:38:50.120Z,100.00
2022-09-27T02:54:09.053Z,100.00
2022-09-27T03:09:48.534Z,100.00
2022-09-27T03:24:52.902Z,100.00
2022-09-27T03:39:56.102Z,100.00
2022-09-27T03:55:02.161Z,100.00
2022-09-27T04:10:06.912Z,100.00
2022-09-27T04:25:12.603Z,100.00
2022-09-27T04:40:17.669Z,100.00
2022-09-27T04:55:22.671Z,100.00
2022-09-27T05:10:26.409Z,100.00
2022-09-27T05:25:31.603Z,100.00
2022-09-27T05:40:42.689Z,100.00
2022-09-27T05:55:49.486Z,100.00
2022-09-27T06:11:02.453Z,100.00
2022-09-27T06:26:08.128Z,100.00
2022-09-27T06:41:23.750Z,100.00
2022-09-27T06:56:40.939Z,100.00
2022-09-27T07:11:46.285Z,100.00
2022-09-27T07:26:50.102Z,100.00
2022-09-27T07:41:55.643Z,100.00
2022-09-27T07:56:59.049Z,100.00
2022-09-27T08:12:03.700Z,100.00
2022-09-27T08:27:11.961Z,100.00
2022-09-27T08:42:44.684Z,100.00
2022-09-27T08:57:56.894Z,100.00
2022-09-27T09:13:12.867Z,100.00
2022-09-27T09:28:27.454Z,100.00
2022-09-27T09:43:35.681Z,100.00
2022-09-27T09:58:48.536Z,100.00
2022-09-27T10:13:58.533Z,100.00
2022-09-27T10:29:24.111Z,100.00
2022-09-27T10:44:30.639Z,100.00
2022-09-27T10:59:42.201Z,99.87
2022-09-27T11:14:52.720Z,97.32
2022-09-27T11:30:22.419Z,94.21
2022-09-27T11:46:16.272Z,92.96
2022-09-27T12:01:49.279Z,90.97
2022-09-27T12:16:56.947Z,89.48
2022-09-27T12:32:04.881Z,87.35
2022-09-27T12:47:34.225Z,83.69
2022-09-27T13:03:14.582Z,82.66
2022-09-27T13:18:36.794Z,81.14
2022-09-27T13:33:54.932Z,81.88
2022-09-27T13:49:17.303Z,81.96
2022-09-27T14:04:51.679Z,78.37
2022-09-27T14:19:56.327Z,69.14
2022-09-27T14:35:34.517Z,62.18
2022-09-27T14:50:39.026Z,60.34
2022-09-27T15:05:43.614Z,61.72
2022-09-27T15:20:54.188Z,65.54
2022-09-27T15:36:04.392Z,69.03
2022-09-27T15:51:38.611Z,71.36
2022-09-27T16:06:44.419Z,74.83
2022-09-27T16:21:48.889Z,79.18
2022-09-27T16:36:52.755Z,82.20
2022-09-27T16:52:03.297Z,86.63
2022-09-27T17:07:08.175Z,89.37
2022-09-27T17:22:13.115Z,90.79
2022-09-27T17:37:19.464Z,93.14
2022-09-27T17:52:27.671Z,94.43
2022-09-27T18:07:34.133Z,96.22
2022-09-27T18:22:39.947Z,97.19
2022-09-27T18:37:47.889Z,98.09
2022-09-27T18:52:53.019Z,98.83
2022-09-27T19:07:57.703Z,99.35
2022-09-27T19:23:04.384Z,99.98
2022-09-27T19:38:09.115Z,100.00
2022-09-27T19:53:13.034Z,100.00
2022-09-27T20:08:16.744Z,100.00
2022-09-27T20:23:20.448Z,100.00
2022-09-27T20:38:23.688Z,100.00
2022-09-27T20:53:28.370Z,100.00
2022-09-27T21:08:36.072Z,100.00
2022-09-27T21:23:44.560Z,100.00
2022-09-27T21:38:48.252Z,100.00
2022-09-27T21:53:56.126Z,100.00
2022-09-27T22:09:01.470Z,100.00
2022-09-27T22:24:23.190Z,100.00
2022-09-27T22:39:26.810Z,100.00
2022-09-27T22:54:29.855Z,100.00
2022-09-27T23:09:33.049Z,100.00
2022-09-27T23:24:36.172Z,100.00
2022-09-27T23:39:39.531Z,100.00
2022-09-27T23:54:42.663Z,100.00
